Aldrich, Minnesota
Current Conditions -  °F | °C
As of 6:13 AM on Tuesday 27 Jan 2015 (Local Time) from KSAZ Reporting Station
Overcast Overcast  
Wind Chill: 27°   Ceiling: 900
Heat Index: 27°   Visibility: 10mi
Dew Point: 25°   Wind: 0mph
Humidity: 93%   Direction: NA
Pressure: 30.07"   Gusts: NA
Location:  46.38°N, 94.94°W
Report Text: KSAZ 271213Z AUTO 00000KT 10SM OVC009 M03/M04 A3007 RMK AO2
Loading
Personal Weather Stations






























Interactive Weather Map New forecast layout! Learn more

10-Day Weather Forecast

Advertisements
Track Severe Weather on mobile